sensor_id;sensor_type;location;lat;lon;timestamp;P1;P2;P0
14880;PMS7003;7533;51.278;12.588;2023-01-05T00:02:42;0.00;0.00;0.00
14880;PMS7003;7533;51.278;12.588;2023-01-05T00:07:44;0.00;0.00;0.00
14880;PMS7003;7533;51.278;12.588;2023-01-05T00:12:47;0.00;0.00;0.00
14880;PMS7003;7533;51.278;12.588;2023-01-05T00:18:09;0.00;0.00;0.00
14880;PMS7003;7533;51.278;12.588;2023-01-05T00:23:32;0.25;0.00;0.00
14880;PMS7003;7533;51.278;12.588;2023-01-05T00:28:35;0.00;0.00;0.00
14880;PMS7003;7533;51.278;12.588;2023-01-05T00:33:39;0.00;0.00;0.00
14880;PMS7003;7533;51.278;12.588;2023-01-05T00:38:42;0.00;0.00;0.00
14880;PMS7003;7533;51.278;12.588;2023-01-05T00:43:45;0.00;0.00;0.00
14880;PMS7003;7533;51.278;12.588;2023-01-05T00:48:49;0.00;0.00;0.00
14880;PMS7003;7533;51.278;12.588;2023-01-05T00:53:52;0.00;0.00;0.00
14880;PMS7003;7533;51.278;12.588;2023-01-05T00:58:55;0.00;0.00;0.00
14880;PMS7003;7533;51.278;12.588;2023-01-05T01:03:59;0.00;0.00;0.00
14880;PMS7003;7533;51.278;12.588;2023-01-05T01:09:02;0.25;0.00;0.00
14880;PMS7003;7533;51.278;12.588;2023-01-05T01:14:05;0.00;0.00;0.00
14880;PMS7003;7533;51.278;12.588;2023-01-05T01:19:13;0.00;0.00;0.00
14880;PMS7003;7533;51.278;12.588;2023-01-05T01:24:19;0.00;0.00;0.00
14880;PMS7003;7533;51.278;12.588;2023-01-05T01:29:23;0.00;0.00;0.00
14880;PMS7003;7533;51.278;12.588;2023-01-05T01:34:27;0.00;0.00;0.00
14880;PMS7003;7533;51.278;12.588;2023-01-05T01:39:31;0.00;0.00;0.00
14880;PMS7003;7533;51.278;12.588;2023-01-05T01:44:49;0.00;0.00;0.00
14880;PMS7003;7533;51.278;12.588;2023-01-05T01:50:17;0.00;0.00;0.00
14880;PMS7003;7533;51.278;12.588;2023-01-05T01:55:22;0.25;0.25;0.00
14880;PMS7003;7533;51.278;12.588;2023-01-05T02:00:27;0.00;0.00;0.00
14880;PMS7003;7533;51.278;12.588;2023-01-05T02:05:32;2.50;0.00;0.00
14880;PMS7003;7533;51.278;12.588;2023-01-05T02:10:43;1.00;1.00;0.00
14880;PMS7003;7533;51.278;12.588;2023-01-05T02:15:57;0.25;0.00;0.00
14880;PMS7003;7533;51.278;12.588;2023-01-05T02:21:15;0.00;0.00;0.00
14880;PMS7003;7533;51.278;12.588;2023-01-05T02:26:48;0.25;0.25;0.00
14880;PMS7003;7533;51.278;12.588;2023-01-05T02:32:14;1.50;0.00;0.00
14880;PMS7003;7533;51.278;12.588;2023-01-05T02:37:25;2.00;0.25;0.00
14880;PMS7003;7533;51.278;12.588;2023-01-05T02:42:35;0.00;0.00;0.00
14880;PMS7003;7533;51.278;12.588;2023-01-05T02:47:42;0.00;0.00;0.00
14880;PMS7003;7533;51.278;12.588;2023-01-05T02:52:49;0.00;0.00;0.00
14880;PMS7003;7533;51.278;12.588;2023-01-05T02:57:58;0.00;0.00;0.00
14880;PMS7003;7533;51.278;12.588;2023-01-05T03:03:10;0.00;0.00;0.00
14880;PMS7003;7533;51.278;12.588;2023-01-05T03:08:17;0.00;0.00;0.00
14880;PMS7003;7533;51.278;12.588;2023-01-05T03:13:34;0.00;0.00;0.00
14880;PMS7003;7533;51.278;12.588;2023-01-05T03:18:50;0.00;0.00;0.00
14880;PMS7003;7533;51.278;12.588;2023-01-05T03:24:15;1.00;0.00;0.00
14880;PMS7003;7533;51.278;12.588;2023-01-05T03:29:36;0.00;0.00;0.00
14880;PMS7003;7533;51.278;12.588;2023-01-05T03:35:01;0.00;0.00;0.00
14880;PMS7003;7533;51.278;12.588;2023-01-05T03:40:25;0.00;0.00;0.00
14880;PMS7003;7533;51.278;12.588;2023-01-05T03:45:32;0.00;0.00;0.00
14880;PMS7003;7533;51.278;12.588;2023-01-05T03:50:39;0.00;0.00;0.00
14880;PMS7003;7533;51.278;12.588;2023-01-05T03:55:46;0.00;0.00;0.00
14880;PMS7003;7533;51.278;12.588;2023-01-05T04:00:49;0.25;0.25;0.00
14880;PMS7003;7533;51.278;12.588;2023-01-05T04:05:56;0.75;0.00;0.00
14880;PMS7003;7533;51.278;12.588;2023-01-05T04:11:12;0.50;0.50;0.00
14880;PMS7003;7533;51.278;12.588;2023-01-05T04:16:21;0.00;0.00;0.00
14880;PMS7003;7533;51.278;12.588;2023-01-05T04:21:29;0.50;0.00;0.00
14880;PMS7003;7533;51.278;12.588;2023-01-05T04:26:32;0.75;0.00;0.00
14880;PMS7003;7533;51.278;12.588;2023-01-05T04:31:36;1.00;0.50;0.00
14880;PMS7003;7533;51.278;12.588;2023-01-05T04:36:42;0.25;0.00;0.00
14880;PMS7003;7533;51.278;12.588;2023-01-05T04:41:49;0.00;0.00;0.00
14880;PMS7003;7533;51.278;12.588;2023-01-05T04:46:54;1.00;0.00;0.00
14880;PMS7003;7533;51.278;12.588;2023-01-05T04:51:58;0.00;0.00;0.00
14880;PMS7003;7533;51.278;12.588;2023-01-05T04:57:02;0.00;0.00;0.00
14880;PMS7003;7533;51.278;12.588;2023-01-05T05:02:07;0.00;0.00;0.00
14880;PMS7003;7533;51.278;12.588;2023-01-05T05:07:14;1.00;1.00;0.00
14880;PMS7003;7533;51.278;12.588;2023-01-05T05:12:17;0.00;0.00;0.00
14880;PMS7003;7533;51.278;12.588;2023-01-05T05:17:24;0.00;0.00;0.00
14880;PMS7003;7533;51.278;12.588;2023-01-05T05:22:28;0.00;0.00;0.00
14880;PMS7003;7533;51.278;12.588;2023-01-05T05:27:34;0.00;0.00;0.00
14880;PMS7003;7533;51.278;12.588;2023-01-05T05:32:36;1.00;0.00;0.00
14880;PMS7003;7533;51.278;12.588;2023-01-05T05:37:46;0.00;0.00;0.00
14880;PMS7003;7533;51.278;12.588;2023-01-05T05:42:56;0.00;0.00;0.00
14880;PMS7003;7533;51.278;12.588;2023-01-05T05:47:59;0.50;0.00;0.00
14880;PMS7003;7533;51.278;12.588;2023-01-05T05:53:03;0.00;0.00;0.00
14880;PMS7003;7533;51.278;12.588;2023-01-05T05:58:06;0.00;0.00;0.00
14880;PMS7003;7533;51.278;12.588;2023-01-05T06:03:09;0.50;0.00;0.00
14880;PMS7003;7533;51.278;12.588;2023-01-05T06:08:14;0.00;0.00;0.00
14880;PMS7003;7533;51.278;12.588;2023-01-05T06:13:16;0.00;0.00;0.00
14880;PMS7003;7533;51.278;12.588;2023-01-05T06:18:20;1.75;1.75;0.00
14880;PMS7003;7533;51.278;12.588;2023-01-05T06:23:24;0.00;0.00;0.00
14880;PMS7003;7533;51.278;12.588;2023-01-05T06:28:27;0.50;0.00;0.00
14880;PMS7003;7533;51.278;12.588;2023-01-05T06:33:29;2.25;1.50;0.00
14880;PMS7003;7533;51.278;12.588;2023-01-05T06:38:34;0.00;0.00;0.00
14880;PMS7003;7533;51.278;12.588;2023-01-05T06:43:37;0.25;0.25;0.00
14880;PMS7003;7533;51.278;12.588;2023-01-05T06:48:40;0.00;0.00;0.00
14880;PMS7003;7533;51.278;12.588;2023-01-05T06:53:44;2.00;0.50;0.00
14880;PMS7003;7533;51.278;12.588;2023-01-05T06:58:47;0.00;0.00;0.00
14880;PMS7003;7533;51.278;12.588;2023-01-05T07:03:49;1.00;1.00;0.00
14880;PMS7003;7533;51.278;12.588;2023-01-05T07:08:54;0.50;0.50;0.00
14880;PMS7003;7533;51.278;12.588;2023-01-05T07:13:56;0.50;0.00;0.00
14880;PMS7003;7533;51.278;12.588;2023-01-05T07:18:59;0.00;0.00;0.00
14880;PMS7003;7533;51.278;12.588;2023-01-05T07:24:04;0.75;0.00;0.00
14880;PMS7003;7533;51.278;12.588;2023-01-05T07:29:07;2.25;1.00;0.00
14880;PMS7003;7533;51.278;12.588;2023-01-05T07:34:10;0.00;0.00;0.00
14880;PMS7003;7533;51.278;12.588;2023-01-05T07:39:14;1.25;0.75;0.00
14880;PMS7003;7533;51.278;12.588;2023-01-05T07:44:17;1.75;1.25;0.75
14880;PMS7003;7533;51.278;12.588;2023-01-05T07:49:20;0.00;0.00;0.00
14880;PMS7003;7533;51.278;12.588;2023-01-05T07:54:24;0.75;0.00;0.00
14880;PMS7003;7533;51.278;12.588;2023-01-05T07:59:28;0.00;0.00;0.00
14880;PMS7003;7533;51.278;12.588;2023-01-05T08:04:30;0.50;0.50;0.00
14880;PMS7003;7533;51.278;12.588;2023-01-05T08:09:35;1.00;1.00;0.00
14880;PMS7003;7533;51.278;12.588;2023-01-05T08:14:55;0.50;0.50;0.00
14880;PMS7003;7533;51.278;12.588;2023-01-05T08:19:58;2.00;2.00;0.00
14880;PMS7003;7533;51.278;12.588;2023-01-05T08:25:02;2.00;2.00;1.00
14880;PMS7003;7533;51.278;12.588;2023-01-05T08:30:06;1.00;1.00;0.00
14880;PMS7003;7533;51.278;12.588;2023-01-05T08:35:10;3.25;2.75;1.25
14880;PMS7003;7533;51.278;12.588;2023-01-05T08:40:14;2.00;2.00;0.75
14880;PMS7003;7533;51.278;12.588;2023-01-05T08:45:17;2.50;2.50;1.00
14880;PMS7003;7533;51.278;12.588;2023-01-05T08:50:20;4.50;4.00;1.00
14880;PMS7003;7533;51.278;12.588;2023-01-05T08:55:24;4.00;1.50;0.50
14880;PMS7003;7533;51.278;12.588;2023-01-05T09:00:27;3.00;3.00;1.00
14880;PMS7003;7533;51.278;12.588;2023-01-05T09:05:30;2.75;2.25;1.00
14880;PMS7003;7533;51.278;12.588;2023-01-05T09:10:35;2.00;2.00;1.00
14880;PMS7003;7533;51.278;12.588;2023-01-05T09:15:37;2.00;2.00;0.75
14880;PMS7003;7533;51.278;12.588;2023-01-05T09:20:40;2.50;1.75;0.25
14880;PMS7003;7533;51.278;12.588;2023-01-05T09:25:44;2.75;2.75;0.00
14880;PMS7003;7533;51.278;12.588;2023-01-05T09:30:47;3.00;2.00;0.25
14880;PMS7003;7533;51.278;12.588;2023-01-05T09:35:52;2.75;1.75;0.75
14880;PMS7003;7533;51.278;12.588;2023-01-05T09:40:57;2.50;1.00;0.00
14880;PMS7003;7533;51.278;12.588;2023-01-05T09:46:05;3.75;2.00;0.00
14880;PMS7003;7533;51.278;12.588;2023-01-05T09:51:13;6.00;2.00;0.25
14880;PMS7003;7533;51.278;12.588;2023-01-05T09:56:21;6.50;4.00;1.00
14880;PMS7003;7533;51.278;12.588;2023-01-05T10:01:49;3.00;3.00;1.25
14880;PMS7003;7533;51.278;12.588;2023-01-05T10:06:54;4.50;4.00;2.00
14880;PMS7003;7533;51.278;12.588;2023-01-05T10:12:03;4.25;3.00;1.00
14880;PMS7003;7533;51.278;12.588;2023-01-05T10:17:35;3.00;3.00;1.50
14880;PMS7003;7533;51.278;12.588;2023-01-05T10:22:45;4.25;3.75;1.00
14880;PMS7003;7533;51.278;12.588;2023-01-05T10:27:58;3.50;3.50;1.25
14880;PMS7003;7533;51.278;12.588;2023-01-05T10:33:13;4.75;4.75;1.00
14880;PMS7003;7533;51.278;12.588;2023-01-05T10:38:42;3.00;3.00;1.00
14880;PMS7003;7533;51.278;12.588;2023-01-05T10:43:57;3.00;3.00;1.00
14880;PMS7003;7533;51.278;12.588;2023-01-05T10:49:15;2.75;2.00;1.00
14880;PMS7003;7533;51.278;12.588;2023-01-05T10:54:25;2.25;2.25;1.00
14880;PMS7003;7533;51.278;12.588;2023-01-05T10:59:40;4.25;2.75;1.00
14880;PMS7003;7533;51.278;12.588;2023-01-05T11:05:01;2.00;2.00;1.00
14880;PMS7003;7533;51.278;12.588;2023-01-05T11:10:14;2.00;2.00;0.00
14880;PMS7003;7533;51.278;12.588;2023-01-05T11:15:23;2.00;2.00;1.00
14880;PMS7003;7533;51.278;12.588;2023-01-05T11:20:27;3.75;2.75;1.25
14880;PMS7003;7533;51.278;12.588;2023-01-05T11:25:30;3.00;3.00;1.00
14880;PMS7003;7533;51.278;12.588;2023-01-05T11:30:35;2.75;2.75;1.00
14880;PMS7003;7533;51.278;12.588;2023-01-05T11:35:39;2.00;2.00;0.75
14880;PMS7003;7533;51.278;12.588;2023-01-05T11:40:45;4.00;3.00;1.00
14880;PMS7003;7533;51.278;12.588;2023-01-05T11:45:50;2.75;1.00;0.00
14880;PMS7003;7533;51.278;12.588;2023-01-05T11:50:55;2.00;2.00;1.00
14880;PMS7003;7533;51.278;12.588;2023-01-05T11:55:59;1.00;1.00;0.00
14880;PMS7003;7533;51.278;12.588;2023-01-05T12:01:27;2.00;2.00;0.00
14880;PMS7003;7533;51.278;12.588;2023-01-05T12:06:56;3.75;2.50;1.00
14880;PMS7003;7533;51.278;12.588;2023-01-05T12:17:55;3.25;2.25;0.50
14880;PMS7003;7533;51.278;12.588;2023-01-05T12:23:25;1.00;1.00;0.00
14880;PMS7003;7533;51.278;12.588;2023-01-05T12:29:04;2.50;1.75;0.50
14880;PMS7003;7533;51.278;12.588;2023-01-05T12:34:55;3.00;2.50;1.00
14880;PMS7003;7533;51.278;12.588;2023-01-05T12:40:25;3.00;2.00;1.00
14880;PMS7003;7533;51.278;12.588;2023-01-05T12:45:52;1.00;1.00;0.50
14880;PMS7003;7533;51.278;12.588;2023-01-05T12:51:09;2.00;1.00;0.75
14880;PMS7003;7533;51.278;12.588;2023-01-05T12:56:19;1.00;1.00;0.00
14880;PMS7003;7533;51.278;12.588;2023-01-05T13:01:28;1.50;1.50;0.00
14880;PMS7003;7533;51.278;12.588;2023-01-05T13:06:38;1.00;1.00;0.75
14880;PMS7003;7533;51.278;12.588;2023-01-05T13:11:45;2.00;2.00;0.50
14880;PMS7003;7533;51.278;12.588;2023-01-05T13:16:52;1.25;1.25;0.25
14880;PMS7003;7533;51.278;12.588;2023-01-05T13:22:04;3.00;3.00;0.00
14880;PMS7003;7533;51.278;12.588;2023-01-05T13:27:12;1.75;1.50;0.00
14880;PMS7003;7533;51.278;12.588;2023-01-05T13:32:24;4.00;1.75;0.75
14880;PMS7003;7533;51.278;12.588;2023-01-05T13:37:42;1.00;1.00;0.00
14880;PMS7003;7533;51.278;12.588;2023-01-05T13:43:17;4.50;3.00;1.00
14880;PMS7003;7533;51.278;12.588;2023-01-05T13:48:43;1.00;1.00;1.00
14880;PMS7003;7533;51.278;12.588;2023-01-05T13:54:08;2.75;2.00;1.00
14880;PMS7003;7533;51.278;12.588;2023-01-05T13:59:17;2.00;2.00;1.00
14880;PMS7003;7533;51.278;12.588;2023-01-05T14:04:43;1.00;1.00;0.50
14880;PMS7003;7533;51.278;12.588;2023-01-05T14:09:49;1.00;1.00;0.00
14880;PMS7003;7533;51.278;12.588;2023-01-05T14:14:57;1.25;1.25;0.75
14880;PMS7003;7533;51.278;12.588;2023-01-05T14:20:01;2.25;1.00;0.00
14880;PMS7003;7533;51.278;12.588;2023-01-05T14:30:45;2.00;2.00;1.00
14880;PMS7003;7533;51.278;12.588;2023-01-05T14:35:49;2.50;2.50;1.00
14880;PMS7003;7533;51.278;12.588;2023-01-05T14:40:53;1.25;1.00;0.00
14880;PMS7003;7533;51.278;12.588;2023-01-05T14:46:00;1.00;1.00;0.00
14880;PMS7003;7533;51.278;12.588;2023-01-05T14:51:15;2.00;1.75;1.00
14880;PMS7003;7533;51.278;12.588;2023-01-05T14:56:21;2.50;1.25;0.75
14880;PMS7003;7533;51.278;12.588;2023-01-05T15:01:28;2.50;2.50;0.50
14880;PMS7003;7533;51.278;12.588;2023-01-05T15:06:40;3.00;2.00;0.50
14880;PMS7003;7533;51.278;12.588;2023-01-05T15:12:00;1.50;0.75;0.50
14880;PMS7003;7533;51.278;12.588;2023-01-05T15:17:32;3.75;2.25;1.00
14880;PMS7003;7533;51.278;12.588;2023-01-05T15:22:54;3.75;2.00;0.50
14880;PMS7003;7533;51.278;12.588;2023-01-05T15:28:15;2.25;2.25;0.75
14880;PMS7003;7533;51.278;12.588;2023-01-05T15:33:36;2.00;1.25;0.00
14880;PMS7003;7533;51.278;12.588;2023-01-05T15:38:44;2.00;2.00;1.00
14880;PMS7003;7533;51.278;12.588;2023-01-05T15:43:48;1.25;0.25;0.00
14880;PMS7003;7533;51.278;12.588;2023-01-05T15:48:53;2.50;2.50;0.00
14880;PMS7003;7533;51.278;12.588;2023-01-05T15:53:57;1.50;1.50;0.00
14880;PMS7003;7533;51.278;12.588;2023-01-05T15:59:01;1.00;1.00;0.00
14880;PMS7003;7533;51.278;12.588;2023-01-05T16:04:07;2.00;2.00;0.25
14880;PMS7003;7533;51.278;12.588;2023-01-05T16:09:23;1.00;1.00;0.75
14880;PMS7003;7533;51.278;12.588;2023-01-05T16:14:29;1.00;1.00;0.00
14880;PMS7003;7533;51.278;12.588;2023-01-05T16:19:40;0.75;0.00;0.00
14880;PMS7003;7533;51.278;12.588;2023-01-05T16:24:48;2.25;1.25;0.25
14880;PMS7003;7533;51.278;12.588;2023-01-05T16:30:11;2.50;2.50;0.00
14880;PMS7003;7533;51.278;12.588;2023-01-05T16:35:23;0.50;0.50;0.00
14880;PMS7003;7533;51.278;12.588;2023-01-05T16:40:33;2.00;1.00;0.00
14880;PMS7003;7533;51.278;12.588;2023-01-05T16:45:37;2.25;2.00;0.00
14880;PMS7003;7533;51.278;12.588;2023-01-05T16:56:01;1.00;1.00;0.00
14880;PMS7003;7533;51.278;12.588;2023-01-05T17:01:13;1.00;1.00;0.00
14880;PMS7003;7533;51.278;12.588;2023-01-05T17:06:21;2.75;1.50;0.00
14880;PMS7003;7533;51.278;12.588;2023-01-05T17:11:29;1.25;1.25;0.00
14880;PMS7003;7533;51.278;12.588;2023-01-05T17:16:35;1.00;1.00;0.00
14880;PMS7003;7533;51.278;12.588;2023-01-05T17:21:40;1.50;1.50;0.00
14880;PMS7003;7533;51.278;12.588;2023-01-05T17:26:45;0.25;0.25;0.00
14880;PMS7003;7533;51.278;12.588;2023-01-05T17:31:48;0.75;0.75;0.00
14880;PMS7003;7533;51.278;12.588;2023-01-05T17:36:53;1.00;1.00;0.00
14880;PMS7003;7533;51.278;12.588;2023-01-05T17:41:58;2.75;2.50;1.00
14880;PMS7003;7533;51.278;12.588;2023-01-05T17:47:15;1.50;1.00;0.00
14880;PMS7003;7533;51.278;12.588;2023-01-05T17:52:19;1.25;1.25;0.00
14880;PMS7003;7533;51.278;12.588;2023-01-05T17:57:22;1.25;1.25;1.00
14880;PMS7003;7533;51.278;12.588;2023-01-05T18:02:25;2.00;2.00;1.00
14880;PMS7003;7533;51.278;12.588;2023-01-05T18:07:29;2.00;2.00;0.50
14880;PMS7003;7533;51.278;12.588;2023-01-05T18:12:32;1.75;1.75;0.00
14880;PMS7003;7533;51.278;12.588;2023-01-05T18:17:36;2.00;2.00;0.50
14880;PMS7003;7533;51.278;12.588;2023-01-05T18:22:41;3.25;1.25;0.00
14880;PMS7003;7533;51.278;12.588;2023-01-05T18:27:44;2.50;1.50;0.50
14880;PMS7003;7533;51.278;12.588;2023-01-05T18:32:47;1.00;1.00;0.00
14880;PMS7003;7533;51.278;12.588;2023-01-05T18:37:51;1.25;1.25;0.00
14880;PMS7003;7533;51.278;12.588;2023-01-05T18:43:00;2.00;0.00;0.00
14880;PMS7003;7533;51.278;12.588;2023-01-05T18:48:03;1.00;1.00;0.00
14880;PMS7003;7533;51.278;12.588;2023-01-05T18:53:07;0.50;0.00;0.00
14880;PMS7003;7533;51.278;12.588;2023-01-05T18:58:10;1.25;1.25;0.75
14880;PMS7003;7533;51.278;12.588;2023-01-05T19:03:13;1.75;0.00;0.00
14880;PMS7003;7533;51.278;12.588;2023-01-05T19:08:17;1.00;1.00;0.00
14880;PMS7003;7533;51.278;12.588;2023-01-05T19:13:20;1.25;1.25;0.00
14880;PMS7003;7533;51.278;12.588;2023-01-05T19:18:23;1.00;1.00;0.00
14880;PMS7003;7533;51.278;12.588;2023-01-05T19:23:28;0.00;0.00;0.00
14880;PMS7003;7533;51.278;12.588;2023-01-05T19:28:33;1.00;1.00;0.00
14880;PMS7003;7533;51.278;12.588;2023-01-05T19:33:37;1.00;1.00;0.50
14880;PMS7003;7533;51.278;12.588;2023-01-05T19:38:42;0.50;0.50;0.00
14880;PMS7003;7533;51.278;12.588;2023-01-05T19:43:46;0.00;0.00;0.00
14880;PMS7003;7533;51.278;12.588;2023-01-05T19:48:50;1.25;0.00;0.00
14880;PMS7003;7533;51.278;12.588;2023-01-05T19:53:54;1.50;0.00;0.00
14880;PMS7003;7533;51.278;12.588;2023-01-05T19:59:00;0.00;0.00;0.00
14880;PMS7003;7533;51.278;12.588;2023-01-05T20:04:04;0.00;0.00;0.00
14880;PMS7003;7533;51.278;12.588;2023-01-05T20:09:11;1.00;1.00;0.00
14880;PMS7003;7533;51.278;12.588;2023-01-05T20:14:15;0.00;0.00;0.00
14880;PMS7003;7533;51.278;12.588;2023-01-05T20:19:20;2.00;1.50;0.00
14880;PMS7003;7533;51.278;12.588;2023-01-05T20:24:26;0.00;0.00;0.00
14880;PMS7003;7533;51.278;12.588;2023-01-05T20:29:30;1.00;1.00;0.00
14880;PMS7003;7533;51.278;12.588;2023-01-05T20:34:35;0.75;0.75;0.00
14880;PMS7003;7533;51.278;12.588;2023-01-05T20:39:41;0.50;0.00;0.00
14880;PMS7003;7533;51.278;12.588;2023-01-05T20:44:44;0.00;0.00;0.00
14880;PMS7003;7533;51.278;12.588;2023-01-05T20:49:50;1.00;1.00;0.00
14880;PMS7003;7533;51.278;12.588;2023-01-05T20:54:55;0.00;0.00;0.00
14880;PMS7003;7533;51.278;12.588;2023-01-05T20:59:58;0.50;0.50;0.00
14880;PMS7003;7533;51.278;12.588;2023-01-05T21:05:01;0.50;0.50;0.00
14880;PMS7003;7533;51.278;12.588;2023-01-05T21:10:05;1.00;1.00;0.00
14880;PMS7003;7533;51.278;12.588;2023-01-05T21:15:09;1.50;1.00;0.00
14880;PMS7003;7533;51.278;12.588;2023-01-05T21:20:12;1.00;0.00;0.00
14880;PMS7003;7533;51.278;12.588;2023-01-05T21:25:16;0.00;0.00;0.00
14880;PMS7003;7533;51.278;12.588;2023-01-05T21:30:19;0.00;0.00;0.00
14880;PMS7003;7533;51.278;12.588;2023-01-05T21:35:23;0.00;0.00;0.00
14880;PMS7003;7533;51.278;12.588;2023-01-05T21:40:27;0.00;0.00;0.00
14880;PMS7003;7533;51.278;12.588;2023-01-05T21:45:30;0.50;0.00;0.00
14880;PMS7003;7533;51.278;12.588;2023-01-05T21:50:34;0.00;0.00;0.00
14880;PMS7003;7533;51.278;12.588;2023-01-05T21:55:56;0.00;0.00;0.00
14880;PMS7003;7533;51.278;12.588;2023-01-05T22:01:17;1.50;0.50;0.00
14880;PMS7003;7533;51.278;12.588;2023-01-05T22:06:20;0.00;0.00;0.00
14880;PMS7003;7533;51.278;12.588;2023-01-05T22:11:24;0.75;0.00;0.00
14880;PMS7003;7533;51.278;12.588;2023-01-05T22:16:27;0.00;0.00;0.00
14880;PMS7003;7533;51.278;12.588;2023-01-05T22:21:31;0.00;0.00;0.00
14880;PMS7003;7533;51.278;12.588;2023-01-05T22:26:35;0.25;0.25;0.00
14880;PMS7003;7533;51.278;12.588;2023-01-05T22:31:38;0.00;0.00;0.00
14880;PMS7003;7533;51.278;12.588;2023-01-05T22:36:41;0.00;0.00;0.00
14880;PMS7003;7533;51.278;12.588;2023-01-05T22:41:47;0.00;0.00;0.00
14880;PMS7003;7533;51.278;12.588;2023-01-05T22:46:50;0.00;0.00;0.00
14880;PMS7003;7533;51.278;12.588;2023-01-05T22:51:53;1.25;0.00;0.00
14880;PMS7003;7533;51.278;12.588;2023-01-05T22:56:57;0.50;0.00;0.00
14880;PMS7003;7533;51.278;12.588;2023-01-05T23:02:00;0.50;0.50;0.00
14880;PMS7003;7533;51.278;12.588;2023-01-05T23:07:03;0.00;0.00;0.00
14880;PMS7003;7533;51.278;12.588;2023-01-05T23:12:07;1.00;1.00;0.00
14880;PMS7003;7533;51.278;12.588;2023-01-05T23:17:12;0.00;0.00;0.00
14880;PMS7003;7533;51.278;12.588;2023-01-05T23:22:15;0.00;0.00;0.00
14880;PMS7003;7533;51.278;12.588;2023-01-05T23:27:20;1.50;0.50;0.00
14880;PMS7003;7533;51.278;12.588;2023-01-05T23:32:23;0.00;0.00;0.00
14880;PMS7003;7533;51.278;12.588;2023-01-05T23:37:27;0.75;0.00;0.00
14880;PMS7003;7533;51.278;12.588;2023-01-05T23:42:32;0.00;0.00;0.00
14880;PMS7003;7533;51.278;12.588;2023-01-05T23:47:51;0.00;0.00;0.00
14880;PMS7003;7533;51.278;12.588;2023-01-05T23:52:54;0.00;0.00;0.00
14880;PMS7003;7533;51.278;12.588;2023-01-05T23:57:58;0.00;0.00;0.00
